»·PEaware :: 9HVCA KVNY-KASE

9HVCA :: KVNY-KASE

FLIGHT INFORMATION

Flight Status: Arrived
Operator: Unknown
More flights by this operator :: More flights under this callsign
Pilot: Skye D. (10623)
Aircraft: BOMBARDIER BD-100 CHALLENGER 300
(CL30)
More flights by this aircraft type
Origin: KVNY Van Nuys
United States
Destination: KASE Aspen-Pitkin Co/Sardy
United States
More flights between these airports :: More routes between these airports
Route: HARYS1 LAS J146 DICEE IBSKI SINSY LOYYD SKIER DBL
File this flight plan on PilotEdge
Remarks:
Altitude:
(Current/Filed)
41,000ft
Speed:
(Current/Filed)
475kts
Departed: 21-Feb-18 11:44 AM
Arrived: 21-Feb-18 01:21 PM
Distance/Time
Traveled:
634nm/1:37
Distance/Time
To Go:
Arrived

Flight Plot

Page will automatically refresh every two minutes.

Flight plan parsing failed; only flown route is shown


Map Options




Map Legend


Flown Route
Filed Route
Departure Airport
Arrival Airport
Navaid (VOR, NDB)
Fix

Horizontal Profiles

Position Reports

Time Latitude Longitude Heading Altitude Ground
Speed
21-Feb-18 11:25 34.205941 -118.491663 178 808ft 0kts
21-Feb-18 11:26 34.205941 -118.491663 178 808ft 0kts
21-Feb-18 11:27 34.205941 -118.491663 178 808ft 0kts
21-Feb-18 11:28 34.205941 -118.491663 178 808ft 0kts
21-Feb-18 11:29 34.205941 -118.491663 178 808ft 0kts
21-Feb-18 11:30 34.205941 -118.491663 178 808ft 0kts
21-Feb-18 11:31 34.205941 -118.491663 178 808ft 0kts
21-Feb-18 11:32 34.205941 -118.491663 178 808ft 0kts
21-Feb-18 11:33 34.205941 -118.491663 178 808ft 0kts
21-Feb-18 11:34 34.205941 -118.491663 178 808ft 0kts
21-Feb-18 11:35 34.205941 -118.491663 178 808ft 0kts
21-Feb-18 11:36 34.205941 -118.491663 178 808ft 0kts
21-Feb-18 11:37 34.205941 -118.491663 178 808ft 0kts
21-Feb-18 11:38 34.205941 -118.491663 178 808ft 0kts
21-Feb-18 11:39 34.205941 -118.491663 178 808ft 0kts
21-Feb-18 11:40 34.205941 -118.491663 178 808ft 0kts
21-Feb-18 11:41 34.205941 -118.491663 178 808ft 0kts
21-Feb-18 11:42 34.205941 -118.491663 178 808ft 0kts
21-Feb-18 11:43 34.205774 -118.491524 107 808ft 0kts
21-Feb-18 11:44 34.208850 -118.491453 354 808ft 9kts
21-Feb-18 11:45 34.213321 -118.491866 353 808ft 18kts
21-Feb-18 11:46 34.216151 -118.492271 356 808ft 11kts
21-Feb-18 11:47 34.218754 -118.492013 84 808ft 0kts
21-Feb-18 11:48 34.218754 -118.492013 84 808ft 0kts
21-Feb-18 11:49 34.218754 -118.492013 84 808ft 0kts
21-Feb-18 11:50 34.218799 -118.491488 84 808ft 8kts
21-Feb-18 11:51 34.204422 -118.489692 173 1382ft 150kts
21-Feb-18 11:52 34.166576 -118.456655 119 3896ft 236kts
21-Feb-18 11:53 34.131502 -118.393659 121 4041ft 257kts
21-Feb-18 11:54 34.107336 -118.331814 77 5484ft 272kts
21-Feb-18 11:55 34.151494 -118.310707 332 8324ft 250kts
21-Feb-18 11:56 34.212926 -118.352182 327 11074ft 327kts
21-Feb-18 11:57 34.286890 -118.410754 323 15759ft 350kts
21-Feb-18 11:58 34.375030 -118.412594 31 19428ft 401kts
21-Feb-18 11:59 34.464207 -118.329999 34 22471ft 430kts
21-Feb-18 12:00 34.556039 -118.239617 35 25139ft 450kts
21-Feb-18 12:01 34.650141 -118.139710 52 27338ft 477kts
21-Feb-18 12:02 34.687286 -117.988656 78 29287ft 496kts
21-Feb-18 12:03 34.700302 -117.821070 85 31012ft 509kts
21-Feb-18 12:04 34.708325 -117.656695 87 33009ft 509kts
21-Feb-18 12:05 34.720620 -117.490402 73 35185ft 504kts
21-Feb-18 12:06 34.761043 -117.332147 70 37348ft 498kts
21-Feb-18 12:07 34.802742 -117.176180 70 39106ft 500kts
21-Feb-18 12:08 34.844155 -117.018934 71 40797ft 501kts
21-Feb-18 12:09 34.885874 -116.859461 71 41167ft 507kts
21-Feb-18 12:10 34.941729 -116.706795 48 41165ft 504kts
21-Feb-18 12:11 35.031333 -116.582027 44 41169ft 502kts
21-Feb-18 12:12 35.123181 -116.459521 44 41178ft 502kts
21-Feb-18 12:13 35.215658 -116.336752 44 41173ft 502kts
21-Feb-18 12:14 35.307944 -116.215109 44 41168ft 501kts
21-Feb-18 12:15 35.400434 -116.091762 45 41172ft 501kts
21-Feb-18 12:16 35.492370 -115.968558 45 41174ft 501kts
21-Feb-18 12:17 35.583914 -115.845407 45 41175ft 501kts
21-Feb-18 12:18 35.674511 -115.721376 45 41183ft 502kts
21-Feb-18 12:19 35.765299 -115.595932 45 41188ft 502kts
21-Feb-18 12:20 35.853388 -115.474168 45 41189ft 503kts
21-Feb-18 12:21 35.939531 -115.354724 45 41190ft 505kts
21-Feb-18 12:22 36.026491 -115.234888 46 41174ft 506kts
21-Feb-18 12:23 36.098164 -115.097277 68 41179ft 508kts
21-Feb-18 12:24 36.146530 -114.943138 69 41172ft 509kts
21-Feb-18 12:25 36.195434 -114.783867 69 41174ft 509kts
21-Feb-18 12:26 36.244058 -114.624454 69 41175ft 511kts
21-Feb-18 12:27 36.292991 -114.463416 69 41177ft 512kts
21-Feb-18 12:28 36.341891 -114.302463 69 41170ft 513kts
21-Feb-18 12:29 36.391091 -114.140639 70 41171ft 514kts
21-Feb-18 12:30 36.439566 -113.978695 70 41165ft 515kts
21-Feb-18 12:31 36.488031 -113.815643 70 41166ft 516kts
21-Feb-18 12:32 36.536778 -113.650706 71 41168ft 517kts
21-Feb-18 12:33 36.584966 -113.486576 70 41170ft 519kts
21-Feb-18 12:34 36.633640 -113.318912 71 41151ft 521kts
21-Feb-18 12:35 36.681181 -113.154440 72 41128ft 522kts
21-Feb-18 12:36 36.728935 -112.988507 72 41130ft 524kts
21-Feb-18 12:37 36.776785 -112.821321 72 41132ft 525kts
21-Feb-18 12:38 36.824206 -112.654735 72 41134ft 526kts
21-Feb-18 12:39 36.870540 -112.490752 72 41136ft 528kts
21-Feb-18 12:40 36.913435 -112.335803 73 41133ft 526kts
21-Feb-18 12:41 36.959253 -112.173810 73 41121ft 521kts
21-Feb-18 12:42 37.001531 -112.022050 73 41122ft 517kts
21-Feb-18 12:43 37.044171 -111.867904 73 41126ft 518kts
21-Feb-18 12:44 37.088154 -111.708004 73 41126ft 521kts
21-Feb-18 12:45 37.128776 -111.559329 73 41119ft 523kts
21-Feb-18 12:46 37.171055 -111.403720 73 41121ft 525kts
21-Feb-18 12:47 37.217853 -111.243726 64 41108ft 529kts
21-Feb-18 12:48 37.298210 -111.103946 52 41115ft 532kts
21-Feb-18 12:49 37.383975 -110.968709 51 41117ft 533kts
21-Feb-18 12:50 37.467162 -110.838400 51 41119ft 533kts
21-Feb-18 12:51 37.556967 -110.697426 52 41123ft 534kts
21-Feb-18 12:52 37.647117 -110.555285 52 41180ft 536kts
21-Feb-18 12:53 37.736406 -110.413922 52 41168ft 539kts
21-Feb-18 12:54 37.828155 -110.269026 52 41157ft 541kts
21-Feb-18 12:55 37.921262 -110.120962 52 41160ft 543kts
21-Feb-18 12:56 38.012184 -109.974556 53 41163ft 545kts
21-Feb-18 12:57 38.103703 -109.825759 52 41163ft 546kts
21-Feb-18 12:58 38.192963 -109.681057 53 41135ft 542kts
21-Feb-18 12:59 38.283333 -109.533979 53 41138ft 538kts
21-Feb-18 13:00 38.372679 -109.387979 53 41141ft 538kts
21-Feb-18 13:01 38.460453 -109.245136 53 41133ft 539kts
21-Feb-18 13:02 38.546981 -109.102973 54 40529ft 538kts
21-Feb-18 13:03 38.625859 -108.972444 54 39379ft 539kts
21-Feb-18 13:04 38.713244 -108.827166 54 37997ft 540kts
21-Feb-18 13:05 38.783662 -108.700617 66 36589ft 540kts
21-Feb-18 13:06 38.845014 -108.499667 73 34766ft 538kts
21-Feb-18 13:07 38.887291 -108.355766 73 33003ft 542kts
21-Feb-18 13:08 38.941700 -108.171989 74 30533ft 552kts
21-Feb-18 13:09 38.981567 -108.035103 74 29431ft 537kts
21-Feb-18 13:10 39.028775 -107.871525 74 27860ft 520kts
21-Feb-18 13:11 39.073642 -107.715070 74 26079ft 504kts
21-Feb-18 13:12 39.114624 -107.571272 73 24270ft 490kts
21-Feb-18 13:13 39.150472 -107.447063 66 22743ft 477kts
21-Feb-18 13:14 39.205947 -107.329331 58 20973ft 463kts
21-Feb-18 13:15 39.260265 -107.227206 57 19974ft 400kts
21-Feb-18 13:16 39.314786 -107.121818 72 17484ft 374kts
21-Feb-18 13:17 39.312513 -107.002362 100 14779ft 330kts
21-Feb-18 13:18 39.303337 -106.893863 100 13980ft 302kts
21-Feb-18 13:19 39.315532 -106.799729 35 13980ft 306kts
21-Feb-18 13:20 39.376908 -106.814529 309 13980ft 250kts
21-Feb-18 13:21 39.419088 -106.867770 309 13973ft 217kts
21-Feb-18 13:22 39.440263 -106.923693 241 13995ft 177kts
21-Feb-18 13:23 39.414450 -106.966255 178 13325ft 174kts
21-Feb-18 13:24 39.369983 -106.941124 161 12215ft 193kts
21-Feb-18 13:25 39.326987 -106.915666 160 11238ft 196kts
21-Feb-18 13:26 39.279235 -106.895286 156 9179ft 191kts
21-Feb-18 13:27 39.241572 -106.877031 156 8024ft 154kts
21-Feb-18 13:28 39.219486 -106.866922 160 7826ft 19kts
21-Feb-18 13:29 39.220005 -106.865900 339 7826ft 9kts
21-Feb-18 13:30 39.222414 -106.866971 28 7826ft 5kts
21-Feb-18 13:31 39.222730 -106.866892 242 7826ft 0kts
21-Feb-18 13:32 39.222730 -106.866892 242 7826ft 0kts

Navigation Log

Ident Type
Flight plan parsing failed, navigation log unavailable